sensor_id;sensor_type;location;lat;lon;timestamp;temperature;humidity
15554;DHT22;7878;44.632;10.942;2023-06-22T00:01:58;29.40;99.90
15554;DHT22;7878;44.632;10.942;2023-06-22T00:04:24;29.30;99.90
15554;DHT22;7878;44.632;10.942;2023-06-22T00:06:49;29.20;99.90
15554;DHT22;7878;44.632;10.942;2023-06-22T00:09:15;29.20;99.90
15554;DHT22;7878;44.632;10.942;2023-06-22T00:11:41;29.10;99.90
15554;DHT22;7878;44.632;10.942;2023-06-22T00:14:06;29.10;99.90
15554;DHT22;7878;44.632;10.942;2023-06-22T00:16:32;29.10;99.90
15554;DHT22;7878;44.632;10.942;2023-06-22T00:18:58;29.10;99.90
15554;DHT22;7878;44.632;10.942;2023-06-22T00:21:29;29.20;99.90
15554;DHT22;7878;44.632;10.942;2023-06-22T00:23:55;29.10;99.90
15554;DHT22;7878;44.632;10.942;2023-06-22T00:26:22;29.10;99.90
15554;DHT22;7878;44.632;10.942;2023-06-22T00:28:48;29.10;99.90
15554;DHT22;7878;44.632;10.942;2023-06-22T00:31:14;29.00;99.90
15554;DHT22;7878;44.632;10.942;2023-06-22T00:33:40;29.00;99.90
15554;DHT22;7878;44.632;10.942;2023-06-22T00:36:06;28.90;99.90
15554;DHT22;7878;44.632;10.942;2023-06-22T00:38:33;28.90;99.90
15554;DHT22;7878;44.632;10.942;2023-06-22T00:40:59;28.90;99.90
15554;DHT22;7878;44.632;10.942;2023-06-22T00:43:25;28.90;99.90
15554;DHT22;7878;44.632;10.942;2023-06-22T00:45:50;28.90;99.90
15554;DHT22;7878;44.632;10.942;2023-06-22T00:48:16;29.00;99.90
15554;DHT22;7878;44.632;10.942;2023-06-22T00:50:42;28.90;99.90
15554;DHT22;7878;44.632;10.942;2023-06-22T00:53:09;28.90;99.90
15554;DHT22;7878;44.632;10.942;2023-06-22T00:55:36;28.90;99.90
15554;DHT22;7878;44.632;10.942;2023-06-22T00:58:06;28.90;99.90
15554;DHT22;7878;44.632;10.942;2023-06-22T01:00:36;28.90;99.90
15554;DHT22;7878;44.632;10.942;2023-06-22T01:03:02;28.90;99.90
15554;DHT22;7878;44.632;10.942;2023-06-22T01:05:29;28.90;99.90
15554;DHT22;7878;44.632;10.942;2023-06-22T01:10:51;28.90;99.90
15554;DHT22;7878;44.632;10.942;2023-06-22T01:13:22;29.00;99.90
15554;DHT22;7878;44.632;10.942;2023-06-22T01:18:30;28.90;99.90
15554;DHT22;7878;44.632;10.942;2023-06-22T01:20:56;28.80;99.90
15554;DHT22;7878;44.632;10.942;2023-06-22T01:23:54;28.90;99.90
15554;DHT22;7878;44.632;10.942;2023-06-22T01:29:12;28.80;99.90
15554;DHT22;7878;44.632;10.942;2023-06-22T01:31:39;28.80;99.90
15554;DHT22;7878;44.632;10.942;2023-06-22T01:34:07;28.80;99.90
15554;DHT22;7878;44.632;10.942;2023-06-22T01:36:34;28.80;99.90
15554;DHT22;7878;44.632;10.942;2023-06-22T01:39:02;28.80;99.90
15554;DHT22;7878;44.632;10.942;2023-06-22T01:41:30;28.80;99.90
15554;DHT22;7878;44.632;10.942;2023-06-22T01:43:56;28.80;99.90
15554;DHT22;7878;44.632;10.942;2023-06-22T01:46:23;28.70;99.90
15554;DHT22;7878;44.632;10.942;2023-06-22T01:48:50;28.70;99.90
15554;DHT22;7878;44.632;10.942;2023-06-22T01:51:16;28.60;99.90
15554;DHT22;7878;44.632;10.942;2023-06-22T01:53:42;28.60;99.90
15554;DHT22;7878;44.632;10.942;2023-06-22T01:56:08;28.60;99.90
15554;DHT22;7878;44.632;10.942;2023-06-22T01:58:37;28.70;99.90
15554;DHT22;7878;44.632;10.942;2023-06-22T02:01:14;28.70;99.90
15554;DHT22;7878;44.632;10.942;2023-06-22T02:04:02;28.70;99.90
15554;DHT22;7878;44.632;10.942;2023-06-22T02:06:34;28.60;99.90
15554;DHT22;7878;44.632;10.942;2023-06-22T02:09:07;28.50;99.90
15554;DHT22;7878;44.632;10.942;2023-06-22T02:11:35;28.50;99.90
15554;DHT22;7878;44.632;10.942;2023-06-22T02:14:02;28.50;99.90
15554;DHT22;7878;44.632;10.942;2023-06-22T02:16:28;28.60;99.90
15554;DHT22;7878;44.632;10.942;2023-06-22T02:18:56;28.50;99.90
15554;DHT22;7878;44.632;10.942;2023-06-22T02:21:23;28.40;99.90
15554;DHT22;7878;44.632;10.942;2023-06-22T02:23:49;28.50;99.90
15554;DHT22;7878;44.632;10.942;2023-06-22T02:26:17;28.50;99.90
15554;DHT22;7878;44.632;10.942;2023-06-22T02:28:43;28.40;99.90
15554;DHT22;7878;44.632;10.942;2023-06-22T02:31:09;28.40;99.90
15554;DHT22;7878;44.632;10.942;2023-06-22T02:33:35;28.40;99.90
15554;DHT22;7878;44.632;10.942;2023-06-22T02:36:00;28.30;99.90
15554;DHT22;7878;44.632;10.942;2023-06-22T02:38:33;28.40;99.90
15554;DHT22;7878;44.632;10.942;2023-06-22T02:41:00;28.30;99.90
15554;DHT22;7878;44.632;10.942;2023-06-22T02:43:26;28.30;99.90
15554;DHT22;7878;44.632;10.942;2023-06-22T02:45:52;28.30;99.90
15554;DHT22;7878;44.632;10.942;2023-06-22T02:48:18;28.40;99.90
15554;DHT22;7878;44.632;10.942;2023-06-22T02:50:43;28.30;99.90
15554;DHT22;7878;44.632;10.942;2023-06-22T02:53:09;28.30;99.90
15554;DHT22;7878;44.632;10.942;2023-06-22T02:55:35;28.20;99.90
15554;DHT22;7878;44.632;10.942;2023-06-22T02:58:01;28.20;99.90
15554;DHT22;7878;44.632;10.942;2023-06-22T03:00:32;28.20;99.90
15554;DHT22;7878;44.632;10.942;2023-06-22T03:02:58;28.20;99.90
15554;DHT22;7878;44.632;10.942;2023-06-22T03:05:23;28.10;99.90
15554;DHT22;7878;44.632;10.942;2023-06-22T03:07:50;28.10;99.90
15554;DHT22;7878;44.632;10.942;2023-06-22T03:10:17;28.10;99.90
15554;DHT22;7878;44.632;10.942;2023-06-22T03:12:43;28.10;99.90
15554;DHT22;7878;44.632;10.942;2023-06-22T03:15:10;28.10;99.90
15554;DHT22;7878;44.632;10.942;2023-06-22T03:17:37;28.20;99.90
15554;DHT22;7878;44.632;10.942;2023-06-22T03:20:07;28.10;99.90
15554;DHT22;7878;44.632;10.942;2023-06-22T03:22:41;28.00;99.90
15554;DHT22;7878;44.632;10.942;2023-06-22T03:25:10;28.00;99.90
15554;DHT22;7878;44.632;10.942;2023-06-22T03:27:42;27.90;99.90
15554;DHT22;7878;44.632;10.942;2023-06-22T03:30:10;28.00;99.90
15554;DHT22;7878;44.632;10.942;2023-06-22T03:32:36;28.00;99.90
15554;DHT22;7878;44.632;10.942;2023-06-22T03:35:02;27.90;99.90
15554;DHT22;7878;44.632;10.942;2023-06-22T03:37:28;27.90;99.90
15554;DHT22;7878;44.632;10.942;2023-06-22T03:39:54;27.90;99.90
15554;DHT22;7878;44.632;10.942;2023-06-22T03:42:20;27.90;99.90
15554;DHT22;7878;44.632;10.942;2023-06-22T03:44:46;27.90;99.90
15554;DHT22;7878;44.632;10.942;2023-06-22T03:47:12;27.90;99.90
15554;DHT22;7878;44.632;10.942;2023-06-22T03:49:38;27.90;99.90
15554;DHT22;7878;44.632;10.942;2023-06-22T03:52:04;27.90;99.90
15554;DHT22;7878;44.632;10.942;2023-06-22T03:54:30;27.90;99.90
15554;DHT22;7878;44.632;10.942;2023-06-22T03:56:59;27.90;99.90
15554;DHT22;7878;44.632;10.942;2023-06-22T03:59:25;27.90;99.90
15554;DHT22;7878;44.632;10.942;2023-06-22T04:01:51;27.80;99.90
15554;DHT22;7878;44.632;10.942;2023-06-22T04:04:19;27.90;99.90
15554;DHT22;7878;44.632;10.942;2023-06-22T04:06:45;27.90;99.90
15554;DHT22;7878;44.632;10.942;2023-06-22T04:09:11;27.90;99.90
15554;DHT22;7878;44.632;10.942;2023-06-22T04:11:37;27.80;99.90
15554;DHT22;7878;44.632;10.942;2023-06-22T04:14:03;27.80;99.90
15554;DHT22;7878;44.632;10.942;2023-06-22T04:16:28;27.70;99.90
15554;DHT22;7878;44.632;10.942;2023-06-22T04:18:54;27.70;99.90
15554;DHT22;7878;44.632;10.942;2023-06-22T04:21:20;27.60;99.90
15554;DHT22;7878;44.632;10.942;2023-06-22T04:23:46;27.60;99.90
15554;DHT22;7878;44.632;10.942;2023-06-22T04:26:12;27.70;99.90
15554;DHT22;7878;44.632;10.942;2023-06-22T04:28:39;27.70;99.90
15554;DHT22;7878;44.632;10.942;2023-06-22T04:31:05;27.70;99.90
15554;DHT22;7878;44.632;10.942;2023-06-22T04:33:31;27.80;99.90
15554;DHT22;7878;44.632;10.942;2023-06-22T04:35:58;27.80;99.90
15554;DHT22;7878;44.632;10.942;2023-06-22T04:38:25;27.70;99.90
15554;DHT22;7878;44.632;10.942;2023-06-22T04:40:51;27.70;99.90
15554;DHT22;7878;44.632;10.942;2023-06-22T04:43:16;27.70;99.90
15554;DHT22;7878;44.632;10.942;2023-06-22T04:45:42;27.70;99.90
15554;DHT22;7878;44.632;10.942;2023-06-22T04:48:08;27.70;99.90
15554;DHT22;7878;44.632;10.942;2023-06-22T04:50:36;27.70;99.90
15554;DHT22;7878;44.632;10.942;2023-06-22T04:53:04;27.80;99.90
15554;DHT22;7878;44.632;10.942;2023-06-22T04:55:31;27.80;99.90
15554;DHT22;7878;44.632;10.942;2023-06-22T04:57:57;27.80;99.90
15554;DHT22;7878;44.632;10.942;2023-06-22T05:00:30;27.70;99.90
15554;DHT22;7878;44.632;10.942;2023-06-22T05:02:56;27.80;99.90
15554;DHT22;7878;44.632;10.942;2023-06-22T05:05:26;27.80;99.90
15554;DHT22;7878;44.632;10.942;2023-06-22T05:07:51;27.80;99.90
15554;DHT22;7878;44.632;10.942;2023-06-22T05:10:25;27.70;99.90
15554;DHT22;7878;44.632;10.942;2023-06-22T05:12:50;27.70;99.90
15554;DHT22;7878;44.632;10.942;2023-06-22T05:15:16;27.80;99.90
15554;DHT22;7878;44.632;10.942;2023-06-22T05:17:44;27.80;99.90
15554;DHT22;7878;44.632;10.942;2023-06-22T05:20:11;27.90;99.90
15554;DHT22;7878;44.632;10.942;2023-06-22T05:22:38;27.90;99.90
15554;DHT22;7878;44.632;10.942;2023-06-22T05:25:07;27.90;99.90
15554;DHT22;7878;44.632;10.942;2023-06-22T05:27:33;28.00;99.90
15554;DHT22;7878;44.632;10.942;2023-06-22T05:29:59;28.10;99.90
15554;DHT22;7878;44.632;10.942;2023-06-22T05:32:24;28.10;99.90
15554;DHT22;7878;44.632;10.942;2023-06-22T05:34:50;28.10;99.90
15554;DHT22;7878;44.632;10.942;2023-06-22T05:37:16;28.00;99.90
15554;DHT22;7878;44.632;10.942;2023-06-22T05:39:41;28.00;99.90
15554;DHT22;7878;44.632;10.942;2023-06-22T05:42:07;28.10;99.90
15554;DHT22;7878;44.632;10.942;2023-06-22T05:44:33;28.00;99.90
15554;DHT22;7878;44.632;10.942;2023-06-22T05:46:59;28.00;99.90
15554;DHT22;7878;44.632;10.942;2023-06-22T05:49:25;28.00;99.90
15554;DHT22;7878;44.632;10.942;2023-06-22T05:51:55;28.10;99.90
15554;DHT22;7878;44.632;10.942;2023-06-22T05:54:22;28.10;99.90
15554;DHT22;7878;44.632;10.942;2023-06-22T05:56:48;28.20;99.90
15554;DHT22;7878;44.632;10.942;2023-06-22T05:59:13;28.30;99.90
15554;DHT22;7878;44.632;10.942;2023-06-22T06:01:39;28.30;99.90
15554;DHT22;7878;44.632;10.942;2023-06-22T06:04:05;28.40;99.90
15554;DHT22;7878;44.632;10.942;2023-06-22T06:06:33;28.50;99.90
15554;DHT22;7878;44.632;10.942;2023-06-22T06:09:00;28.40;99.90
15554;DHT22;7878;44.632;10.942;2023-06-22T06:11:26;28.50;99.90
15554;DHT22;7878;44.632;10.942;2023-06-22T06:13:52;28.40;99.90
15554;DHT22;7878;44.632;10.942;2023-06-22T06:16:18;28.40;99.90
15554;DHT22;7878;44.632;10.942;2023-06-22T06:18:43;28.40;99.90
15554;DHT22;7878;44.632;10.942;2023-06-22T06:21:09;28.30;99.90
15554;DHT22;7878;44.632;10.942;2023-06-22T06:23:35;28.30;99.90
15554;DHT22;7878;44.632;10.942;2023-06-22T06:26:00;28.40;99.90
15554;DHT22;7878;44.632;10.942;2023-06-22T06:28:26;28.40;99.90
15554;DHT22;7878;44.632;10.942;2023-06-22T06:30:52;28.30;99.90
15554;DHT22;7878;44.632;10.942;2023-06-22T06:33:19;28.30;99.90
15554;DHT22;7878;44.632;10.942;2023-06-22T06:35:46;28.20;99.90
15554;DHT22;7878;44.632;10.942;2023-06-22T06:38:12;28.30;99.90
15554;DHT22;7878;44.632;10.942;2023-06-22T06:40:37;28.20;99.90
15554;DHT22;7878;44.632;10.942;2023-06-22T06:43:03;28.30;99.90
15554;DHT22;7878;44.632;10.942;2023-06-22T06:45:29;28.40;99.90
15554;DHT22;7878;44.632;10.942;2023-06-22T06:47:56;28.40;99.90
15554;DHT22;7878;44.632;10.942;2023-06-22T06:50:22;28.50;99.90
15554;DHT22;7878;44.632;10.942;2023-06-22T06:52:48;28.60;99.90
15554;DHT22;7878;44.632;10.942;2023-06-22T06:55:15;28.60;99.90
15554;DHT22;7878;44.632;10.942;2023-06-22T06:57:42;28.60;99.90
15554;DHT22;7878;44.632;10.942;2023-06-22T07:00:10;28.60;99.90
15554;DHT22;7878;44.632;10.942;2023-06-22T07:02:43;28.60;99.90
15554;DHT22;7878;44.632;10.942;2023-06-22T07:05:11;28.70;99.90
15554;DHT22;7878;44.632;10.942;2023-06-22T07:07:37;28.70;99.90
15554;DHT22;7878;44.632;10.942;2023-06-22T07:10:07;28.70;99.90
15554;DHT22;7878;44.632;10.942;2023-06-22T07:12:33;28.90;99.90
15554;DHT22;7878;44.632;10.942;2023-06-22T07:15:06;28.90;99.90
15554;DHT22;7878;44.632;10.942;2023-06-22T07:17:39;29.00;99.90
15554;DHT22;7878;44.632;10.942;2023-06-22T07:20:06;29.00;99.90
15554;DHT22;7878;44.632;10.942;2023-06-22T07:22:37;29.00;99.90
15554;DHT22;7878;44.632;10.942;2023-06-22T07:25:04;29.00;99.90
15554;DHT22;7878;44.632;10.942;2023-06-22T07:27:43;29.10;99.90
15554;DHT22;7878;44.632;10.942;2023-06-22T07:30:11;29.20;99.90
15554;DHT22;7878;44.632;10.942;2023-06-22T07:32:37;29.20;99.90
15554;DHT22;7878;44.632;10.942;2023-06-22T07:35:03;29.30;99.90
15554;DHT22;7878;44.632;10.942;2023-06-22T07:37:29;29.30;99.90
15554;DHT22;7878;44.632;10.942;2023-06-22T07:39:56;29.40;99.90
15554;DHT22;7878;44.632;10.942;2023-06-22T07:42:27;29.50;99.90
15554;DHT22;7878;44.632;10.942;2023-06-22T07:44:53;29.50;99.90
15554;DHT22;7878;44.632;10.942;2023-06-22T07:47:20;29.50;99.90
15554;DHT22;7878;44.632;10.942;2023-06-22T07:49:48;29.50;99.90
15554;DHT22;7878;44.632;10.942;2023-06-22T07:52:14;29.50;99.90
15554;DHT22;7878;44.632;10.942;2023-06-22T07:54:40;29.60;99.90
15554;DHT22;7878;44.632;10.942;2023-06-22T07:57:05;29.60;99.90
15554;DHT22;7878;44.632;10.942;2023-06-22T07:59:31;29.60;99.90
15554;DHT22;7878;44.632;10.942;2023-06-22T08:01:57;29.70;99.90
15554;DHT22;7878;44.632;10.942;2023-06-22T08:04:23;29.80;99.90
15554;DHT22;7878;44.632;10.942;2023-06-22T08:06:49;29.80;99.90
15554;DHT22;7878;44.632;10.942;2023-06-22T08:09:15;29.80;99.90
15554;DHT22;7878;44.632;10.942;2023-06-22T08:11:40;29.90;99.90
15554;DHT22;7878;44.632;10.942;2023-06-22T08:14:06;29.90;99.90
15554;DHT22;7878;44.632;10.942;2023-06-22T08:16:32;30.00;99.90
15554;DHT22;7878;44.632;10.942;2023-06-22T08:18:57;30.10;99.90
15554;DHT22;7878;44.632;10.942;2023-06-22T08:21:23;30.10;99.90
15554;DHT22;7878;44.632;10.942;2023-06-22T08:23:49;30.10;99.90
15554;DHT22;7878;44.632;10.942;2023-06-22T08:26:15;30.20;99.90
15554;DHT22;7878;44.632;10.942;2023-06-22T08:28:40;30.20;99.90
15554;DHT22;7878;44.632;10.942;2023-06-22T08:31:06;30.30;99.90
15554;DHT22;7878;44.632;10.942;2023-06-22T08:33:32;30.30;99.90
15554;DHT22;7878;44.632;10.942;2023-06-22T08:35:58;30.40;99.90
15554;DHT22;7878;44.632;10.942;2023-06-22T08:38:25;30.40;99.90
15554;DHT22;7878;44.632;10.942;2023-06-22T08:40:50;30.50;99.90
15554;DHT22;7878;44.632;10.942;2023-06-22T08:43:16;30.50;99.90
15554;DHT22;7878;44.632;10.942;2023-06-22T08:45:42;30.60;99.90
15554;DHT22;7878;44.632;10.942;2023-06-22T08:48:07;30.60;99.90
15554;DHT22;7878;44.632;10.942;2023-06-22T08:50:33;30.70;99.90
15554;DHT22;7878;44.632;10.942;2023-06-22T08:52:59;30.70;99.90
15554;DHT22;7878;44.632;10.942;2023-06-22T08:55:24;30.80;99.90
15554;DHT22;7878;44.632;10.942;2023-06-22T08:57:50;30.80;99.90
15554;DHT22;7878;44.632;10.942;2023-06-22T09:00:16;30.80;99.90
15554;DHT22;7878;44.632;10.942;2023-06-22T09:02:44;30.80;99.90
15554;DHT22;7878;44.632;10.942;2023-06-22T09:05:10;30.80;99.90
15554;DHT22;7878;44.632;10.942;2023-06-22T09:07:36;30.90;99.90
15554;DHT22;7878;44.632;10.942;2023-06-22T09:10:02;30.90;99.90
15554;DHT22;7878;44.632;10.942;2023-06-22T09:12:30;31.00;99.90
15554;DHT22;7878;44.632;10.942;2023-06-22T09:14:58;31.00;99.90
15554;DHT22;7878;44.632;10.942;2023-06-22T09:17:25;31.10;99.90
15554;DHT22;7878;44.632;10.942;2023-06-22T09:19:51;31.10;99.90
15554;DHT22;7878;44.632;10.942;2023-06-22T09:22:17;31.20;99.90
15554;DHT22;7878;44.632;10.942;2023-06-22T09:24:43;31.20;99.90
15554;DHT22;7878;44.632;10.942;2023-06-22T09:27:08;31.20;99.90
15554;DHT22;7878;44.632;10.942;2023-06-22T09:29:34;31.30;99.90
15554;DHT22;7878;44.632;10.942;2023-06-22T09:32:00;31.30;99.90
15554;DHT22;7878;44.632;10.942;2023-06-22T09:34:26;31.40;99.90
15554;DHT22;7878;44.632;10.942;2023-06-22T09:36:51;31.40;99.90
15554;DHT22;7878;44.632;10.942;2023-06-22T09:39:18;31.40;99.90
15554;DHT22;7878;44.632;10.942;2023-06-22T09:41:44;31.40;99.90
15554;DHT22;7878;44.632;10.942;2023-06-22T09:44:09;31.50;99.90
15554;DHT22;7878;44.632;10.942;2023-06-22T09:46:35;31.50;99.90
15554;DHT22;7878;44.632;10.942;2023-06-22T09:49:01;31.50;99.90
15554;DHT22;7878;44.632;10.942;2023-06-22T09:51:26;31.50;99.90
15554;DHT22;7878;44.632;10.942;2023-06-22T09:53:53;31.60;99.90
15554;DHT22;7878;44.632;10.942;2023-06-22T09:56:21;31.70;99.90
15554;DHT22;7878;44.632;10.942;2023-06-22T09:58:48;31.70;99.90
15554;DHT22;7878;44.632;10.942;2023-06-22T10:01:15;31.70;99.90
15554;DHT22;7878;44.632;10.942;2023-06-22T10:03:41;31.70;99.90
15554;DHT22;7878;44.632;10.942;2023-06-22T10:06:07;31.90;99.90
15554;DHT22;7878;44.632;10.942;2023-06-22T10:08:34;32.00;99.90
15554;DHT22;7878;44.632;10.942;2023-06-22T10:11:01;32.10;99.90
15554;DHT22;7878;44.632;10.942;2023-06-22T10:13:26;32.20;99.90
15554;DHT22;7878;44.632;10.942;2023-06-22T10:15:52;32.40;99.90
15554;DHT22;7878;44.632;10.942;2023-06-22T10:18:18;32.70;99.90
15554;DHT22;7878;44.632;10.942;2023-06-22T10:20:48;33.10;99.90
15554;DHT22;7878;44.632;10.942;2023-06-22T10:23:14;33.50;99.90
15554;DHT22;7878;44.632;10.942;2023-06-22T10:25:40;34.00;99.90
15554;DHT22;7878;44.632;10.942;2023-06-22T10:28:05;34.90;99.90
15554;DHT22;7878;44.632;10.942;2023-06-22T10:30:31;35.50;99.90
15554;DHT22;7878;44.632;10.942;2023-06-22T10:32:57;35.90;99.90
15554;DHT22;7878;44.632;10.942;2023-06-22T10:35:23;36.30;99.90
15554;DHT22;7878;44.632;10.942;2023-06-22T10:37:49;36.60;99.90
15554;DHT22;7878;44.632;10.942;2023-06-22T10:40:17;36.50;99.90
15554;DHT22;7878;44.632;10.942;2023-06-22T10:42:44;36.30;99.90
15554;DHT22;7878;44.632;10.942;2023-06-22T10:45:10;36.60;99.90
15554;DHT22;7878;44.632;10.942;2023-06-22T10:47:36;36.80;99.90
15554;DHT22;7878;44.632;10.942;2023-06-22T10:50:03;36.90;99.90
15554;DHT22;7878;44.632;10.942;2023-06-22T10:52:28;36.70;99.90
15554;DHT22;7878;44.632;10.942;2023-06-22T10:54:54;36.30;99.90
15554;DHT22;7878;44.632;10.942;2023-06-22T10:57:20;36.00;99.90
15554;DHT22;7878;44.632;10.942;2023-06-22T10:59:46;35.80;99.90
15554;DHT22;7878;44.632;10.942;2023-06-22T11:02:12;35.60;99.90
15554;DHT22;7878;44.632;10.942;2023-06-22T11:04:38;35.60;99.90
15554;DHT22;7878;44.632;10.942;2023-06-22T11:07:04;35.50;99.90
15554;DHT22;7878;44.632;10.942;2023-06-22T11:09:30;35.50;99.90
15554;DHT22;7878;44.632;10.942;2023-06-22T11:11:56;35.50;99.90
15554;DHT22;7878;44.632;10.942;2023-06-22T11:14:24;35.60;99.90
15554;DHT22;7878;44.632;10.942;2023-06-22T11:16:50;35.60;99.90
15554;DHT22;7878;44.632;10.942;2023-06-22T11:19:16;35.60;99.90
15554;DHT22;7878;44.632;10.942;2023-06-22T11:21:42;35.50;99.90
15554;DHT22;7878;44.632;10.942;2023-06-22T11:24:08;35.50;99.90
15554;DHT22;7878;44.632;10.942;2023-06-22T11:26:34;35.50;99.90
15554;DHT22;7878;44.632;10.942;2023-06-22T11:29:00;35.40;99.90
15554;DHT22;7878;44.632;10.942;2023-06-22T11:31:25;35.30;99.90
15554;DHT22;7878;44.632;10.942;2023-06-22T11:33:51;35.40;99.90
15554;DHT22;7878;44.632;10.942;2023-06-22T11:36:17;35.30;99.90
15554;DHT22;7878;44.632;10.942;2023-06-22T11:38:43;35.10;99.90
15554;DHT22;7878;44.632;10.942;2023-06-22T11:41:09;35.10;99.90
15554;DHT22;7878;44.632;10.942;2023-06-22T11:43:35;35.10;99.90
15554;DHT22;7878;44.632;10.942;2023-06-22T11:46:03;35.00;99.90
15554;DHT22;7878;44.632;10.942;2023-06-22T11:48:29;35.00;99.90
15554;DHT22;7878;44.632;10.942;2023-06-22T11:50:54;34.90;99.90
15554;DHT22;7878;44.632;10.942;2023-06-22T11:53:21;34.90;99.90
15554;DHT22;7878;44.632;10.942;2023-06-22T11:55:47;34.80;99.90
15554;DHT22;7878;44.632;10.942;2023-06-22T11:58:14;34.80;99.90
15554;DHT22;7878;44.632;10.942;2023-06-22T12:00:40;34.70;99.90
15554;DHT22;7878;44.632;10.942;2023-06-22T12:03:07;34.70;99.90
15554;DHT22;7878;44.632;10.942;2023-06-22T12:05:33;34.70;99.90
15554;DHT22;7878;44.632;10.942;2023-06-22T12:07:59;34.60;99.90
15554;DHT22;7878;44.632;10.942;2023-06-22T12:10:26;34.50;99.90
15554;DHT22;7878;44.632;10.942;2023-06-22T12:12:53;34.40;99.90
15554;DHT22;7878;44.632;10.942;2023-06-22T12:15:19;34.30;99.90
15554;DHT22;7878;44.632;10.942;2023-06-22T12:17:45;34.20;99.90
15554;DHT22;7878;44.632;10.942;2023-06-22T12:20:11;34.30;99.90
15554;DHT22;7878;44.632;10.942;2023-06-22T12:22:37;34.20;99.90
15554;DHT22;7878;44.632;10.942;2023-06-22T12:25:03;34.20;99.90
15554;DHT22;7878;44.632;10.942;2023-06-22T12:27:29;34.10;99.90
15554;DHT22;7878;44.632;10.942;2023-06-22T12:29:56;34.10;99.90
15554;DHT22;7878;44.632;10.942;2023-06-22T12:32:22;34.10;99.90
15554;DHT22;7878;44.632;10.942;2023-06-22T12:34:50;34.10;99.90
15554;DHT22;7878;44.632;10.942;2023-06-22T12:37:16;34.10;99.90
15554;DHT22;7878;44.632;10.942;2023-06-22T12:39:41;34.10;99.90
15554;DHT22;7878;44.632;10.942;2023-06-22T12:42:07;34.20;99.90
15554;DHT22;7878;44.632;10.942;2023-06-22T12:44:43;34.20;99.90
15554;DHT22;7878;44.632;10.942;2023-06-22T12:47:09;34.20;99.90
15554;DHT22;7878;44.632;10.942;2023-06-22T12:49:35;34.20;99.90
15554;DHT22;7878;44.632;10.942;2023-06-22T12:52:01;34.20;99.90
15554;DHT22;7878;44.632;10.942;2023-06-22T12:54:27;34.30;99.90
15554;DHT22;7878;44.632;10.942;2023-06-22T12:56:54;34.30;99.90
15554;DHT22;7878;44.632;10.942;2023-06-22T12:59:20;34.30;99.90
15554;DHT22;7878;44.632;10.942;2023-06-22T13:01:46;34.20;99.90
15554;DHT22;7878;44.632;10.942;2023-06-22T13:04:12;34.20;99.90
15554;DHT22;7878;44.632;10.942;2023-06-22T13:06:41;34.20;99.90
15554;DHT22;7878;44.632;10.942;2023-06-22T13:09:07;34.20;99.90
15554;DHT22;7878;44.632;10.942;2023-06-22T13:11:32;34.30;99.90
15554;DHT22;7878;44.632;10.942;2023-06-22T13:13:58;34.30;99.90
15554;DHT22;7878;44.632;10.942;2023-06-22T13:16:24;34.30;99.90
15554;DHT22;7878;44.632;10.942;2023-06-22T13:18:49;34.20;99.90
15554;DHT22;7878;44.632;10.942;2023-06-22T13:21:15;34.20;99.90
15554;DHT22;7878;44.632;10.942;2023-06-22T13:23:41;34.10;99.90
15554;DHT22;7878;44.632;10.942;2023-06-22T13:26:07;34.10;99.90
15554;DHT22;7878;44.632;10.942;2023-06-22T13:28:33;34.10;99.90
15554;DHT22;7878;44.632;10.942;2023-06-22T13:30:58;34.10;99.90
15554;DHT22;7878;44.632;10.942;2023-06-22T13:33:24;34.10;99.90
15554;DHT22;7878;44.632;10.942;2023-06-22T13:35:50;34.10;99.90
15554;DHT22;7878;44.632;10.942;2023-06-22T13:38:16;34.10;99.90
15554;DHT22;7878;44.632;10.942;2023-06-22T13:40:42;34.10;99.90
15554;DHT22;7878;44.632;10.942;2023-06-22T13:43:08;34.10;99.90
15554;DHT22;7878;44.632;10.942;2023-06-22T13:45:34;34.10;99.90
15554;DHT22;7878;44.632;10.942;2023-06-22T13:48:00;34.10;99.90
15554;DHT22;7878;44.632;10.942;2023-06-22T13:50:25;34.10;99.90
15554;DHT22;7878;44.632;10.942;2023-06-22T13:52:51;34.20;99.90
15554;DHT22;7878;44.632;10.942;2023-06-22T13:55:17;34.20;99.90
15554;DHT22;7878;44.632;10.942;2023-06-22T13:57:43;34.10;99.90
15554;DHT22;7878;44.632;10.942;2023-06-22T14:00:09;34.10;99.90
15554;DHT22;7878;44.632;10.942;2023-06-22T14:02:38;34.10;99.90
15554;DHT22;7878;44.632;10.942;2023-06-22T14:05:05;34.10;99.90
15554;DHT22;7878;44.632;10.942;2023-06-22T14:07:31;34.10;99.90
15554;DHT22;7878;44.632;10.942;2023-06-22T14:09:57;34.10;99.90
15554;DHT22;7878;44.632;10.942;2023-06-22T14:12:23;34.10;99.90
15554;DHT22;7878;44.632;10.942;2023-06-22T14:14:49;34.10;99.90
15554;DHT22;7878;44.632;10.942;2023-06-22T14:17:15;34.10;99.90
15554;DHT22;7878;44.632;10.942;2023-06-22T14:19:41;34.10;99.90
15554;DHT22;7878;44.632;10.942;2023-06-22T14:22:06;34.10;99.90
15554;DHT22;7878;44.632;10.942;2023-06-22T14:24:32;33.80;99.90
15554;DHT22;7878;44.632;10.942;2023-06-22T14:26:57;33.50;99.90
15554;DHT22;7878;44.632;10.942;2023-06-22T14:29:24;33.40;99.90
15554;DHT22;7878;44.632;10.942;2023-06-22T14:31:50;33.50;99.90
15554;DHT22;7878;44.632;10.942;2023-06-22T14:34:15;33.50;99.90
15554;DHT22;7878;44.632;10.942;2023-06-22T14:36:42;33.60;99.90
15554;DHT22;7878;44.632;10.942;2023-06-22T14:39:09;33.60;99.90
15554;DHT22;7878;44.632;10.942;2023-06-22T14:41:34;33.70;99.90
15554;DHT22;7878;44.632;10.942;2023-06-22T14:44:00;33.80;99.90
15554;DHT22;7878;44.632;10.942;2023-06-22T14:46:26;33.80;99.90
15554;DHT22;7878;44.632;10.942;2023-06-22T14:48:52;33.80;99.90
15554;DHT22;7878;44.632;10.942;2023-06-22T14:51:18;33.80;99.90
15554;DHT22;7878;44.632;10.942;2023-06-22T14:53:44;33.80;99.90
15554;DHT22;7878;44.632;10.942;2023-06-22T14:56:11;33.80;99.90
15554;DHT22;7878;44.632;10.942;2023-06-22T14:58:39;33.80;99.90
15554;DHT22;7878;44.632;10.942;2023-06-22T15:01:05;33.80;99.90
15554;DHT22;7878;44.632;10.942;2023-06-22T15:03:34;33.80;99.90
15554;DHT22;7878;44.632;10.942;2023-06-22T15:06:02;33.80;99.90
15554;DHT22;7878;44.632;10.942;2023-06-22T15:08:28;33.80;99.90
15554;DHT22;7878;44.632;10.942;2023-06-22T15:10:54;33.80;99.90
15554;DHT22;7878;44.632;10.942;2023-06-22T15:13:21;33.90;99.90
15554;DHT22;7878;44.632;10.942;2023-06-22T15:15:48;33.90;99.90
15554;DHT22;7878;44.632;10.942;2023-06-22T15:18:14;33.90;99.90
15554;DHT22;7878;44.632;10.942;2023-06-22T15:20:41;33.90;99.90
15554;DHT22;7878;44.632;10.942;2023-06-22T15:23:10;33.80;99.90
15554;DHT22;7878;44.632;10.942;2023-06-22T15:25:35;33.80;99.90
15554;DHT22;7878;44.632;10.942;2023-06-22T15:28:01;33.80;99.90
15554;DHT22;7878;44.632;10.942;2023-06-22T15:30:28;33.80;99.90
15554;DHT22;7878;44.632;10.942;2023-06-22T15:32:54;33.80;99.90
15554;DHT22;7878;44.632;10.942;2023-06-22T15:35:20;33.80;99.90